Time;durP1;ratioP1;P1;durP2;ratioP2;P2;SDS_P1;SDS_P2;PMS_P1;PMS_P2;Temp;Humidity;BMP_temperature;BMP_pressure;BME280_temperature;BME280_humidity;BME280_pressure;Samples;Min_cycle;Max_cycle;Signal;HPM_P1;HPM_P2
2022/03/19 00:02:19;;;;;;;2.58;1.23;;;8.80;77.30;;;;;;5041766;28;20437;-83
2022/03/19 00:04:47;;;;;;;6.20;1.48;;;8.80;77.40;;;;;;5057646;28;20532;-82
2022/03/19 00:07:15;;;;;;;6.47;2.15;;;8.80;77.50;;;;;;5041207;28;20488;-83
2022/03/19 00:09:43;;;;;;;5.90;1.60;;;8.80;77.60;;;;;;5058139;28;20066;-82
2022/03/19 00:12:14;;;;;;;4.63;1.10;;;8.80;77.80;;;;;;5058006;28;20037;-82
2022/03/19 00:14:42;;;;;;;4.78;1.20;;;8.80;77.90;;;;;;5041121;28;20072;-83
2022/03/19 00:17:10;;;;;;;4.75;1.33;;;8.80;77.90;;;;;;5057670;28;20040;-83
2022/03/19 00:19:39;;;;;;;6.65;1.73;;;8.80;78.00;;;;;;5040808;28;20036;-82
2022/03/19 00:22:06;;;;;;;4.15;0.93;;;8.80;78.10;;;;;;5057281;28;20045;-82
2022/03/19 00:24:35;;;;;;;2.95;0.93;;;8.80;78.10;;;;;;5041031;28;20404;-82
2022/03/19 00:27:03;;;;;;;3.13;1.85;;;8.80;78.20;;;;;;5040818;28;20037;-82
2022/03/19 00:29:30;;;;;;;6.53;1.20;;;8.70;78.20;;;;;;5040857;28;20044;-82
2022/03/19 00:31:57;;;;;;;3.58;1.02;;;8.70;78.50;;;;;;5040520;28;20056;-82
2022/03/19 00:34:25;;;;;;;2.95;1.30;;;8.70;78.50;;;;;;5040656;28;20052;-82
2022/03/19 00:36:53;;;;;;;4.05;1.20;;;8.60;78.60;;;;;;5040801;28;20064;-82
2022/03/19 00:39:20;;;;;;;4.40;1.55;;;8.60;78.70;;;;;;5040855;28;20146;-82
2022/03/19 00:41:47;;;;;;;4.40;1.17;;;8.60;78.80;;;;;;5040898;28;20039;-82
2022/03/19 00:44:14;;;;;;;4.68;1.45;;;8.60;78.90;;;;;;5057035;28;20083;-82
2022/03/19 00:46:41;;;;;;;3.25;1.20;;;8.60;79.70;;;;;;5057067;28;20051;-82
2022/03/19 00:49:09;;;;;;;3.42;1.35;;;8.60;79.10;;;;;;5040873;28;20048;-82
2022/03/19 00:51:38;;;;;;;2.80;1.08;;;8.60;79.20;;;;;;5057165;28;20451;-82
2022/03/19 00:54:06;;;;;;;4.90;1.38;;;8.50;79.20;;;;;;5040755;28;20488;-83
2022/03/19 00:56:34;;;;;;;4.13;1.17;;;8.50;79.40;;;;;;5040152;28;20113;-79
2022/03/19 00:59:02;;;;;;;3.55;1.20;;;8.50;79.40;;;;;;5040063;28;20051;-79
2022/03/19 01:01:29;;;;;;;4.43;0.90;;;8.40;79.40;;;;;;5040292;28;20052;-80
2022/03/19 01:03:56;;;;;;;4.55;1.13;;;8.40;79.50;;;;;;5039647;28;20114;-80
2022/03/19 01:06:23;;;;;;;3.90;1.05;;;8.40;79.70;;;;;;5055654;28;20135;-79
2022/03/19 01:08:56;;;;;;;3.78;1.00;;;8.40;79.80;;;;;;5040731;28;20515;-80
2022/03/19 01:11:23;;;;;;;3.80;1.33;;;8.30;79.70;;;;;;5073048;28;20496;-80
2022/03/19 01:13:51;;;;;;;4.65;1.35;;;8.30;79.90;;;;;;5056298;28;20049;-80
2022/03/19 01:16:19;;;;;;;3.00;1.00;;;8.40;79.90;;;;;;5056665;28;20036;-79
2022/03/19 01:18:47;;;;;;;5.40;1.35;;;8.30;79.90;;;;;;5039983;28;20047;-79
2022/03/19 01:21:14;;;;;;;3.95;1.67;;;8.30;80.20;;;;;;5056222;28;20407;-81
2022/03/19 01:23:42;;;;;;;4.85;1.65;;;8.20;80.10;;;;;;5040053;28;20238;-81
2022/03/19 01:26:09;;;;;;;5.18;1.58;;;8.30;80.20;;;;;;5039836;28;20040;-82
2022/03/19 01:28:36;;;;;;;5.18;1.63;;;8.20;80.20;;;;;;5023590;28;20110;-81
2022/03/19 01:31:03;;;;;;;6.32;1.50;;;8.20;80.30;;;;;;5039801;28;20040;-82
2022/03/19 01:33:30;;;;;;;7.80;2.10;;;8.20;80.40;;;;;;5036168;28;20081;-81
2022/03/19 01:35:59;;;;;;;4.85;2.17;;;8.20;80.50;;;;;;5036842;28;20440;-81
2022/03/19 01:38:26;;;;;;;4.60;1.92;;;8.20;80.60;;;;;;5036485;28;20041;-82
2022/03/19 01:40:53;;;;;;;5.55;1.52;;;8.20;80.60;;;;;;5036168;28;20523;-82
2022/03/19 01:43:21;;;;;;;9.35;1.80;;;8.20;80.70;;;;;;5036167;28;20394;-82
2022/03/19 01:45:50;;;;;;;5.32;1.85;;;8.20;80.80;;;;;;5036311;28;20087;-82
2022/03/19 01:48:17;;;;;;;6.90;1.88;;;8.20;80.80;;;;;;5052802;28;20485;-82
2022/03/19 01:50:45;;;;;;;7.50;2.08;;;8.20;80.80;;;;;;5035902;28;20082;-79
2022/03/19 01:53:12;;;;;;;6.32;2.13;;;8.20;81.00;;;;;;5052264;28;20033;-79
2022/03/19 01:55:39;;;;;;;3.28;1.60;;;8.20;81.00;;;;;;5053584;28;20112;-79
2022/03/19 01:58:06;;;;;;;3.75;1.95;;;8.20;81.00;;;;;;5068849;28;20137;-79
2022/03/19 02:00:34;;;;;;;6.28;2.30;;;8.20;80.90;;;;;;5035183;28;20037;-79
2022/03/19 02:03:02;;;;;;;3.72;2.00;;;8.20;81.00;;;;;;5035455;28;20503;-78
2022/03/19 02:05:29;;;;;;;5.07;2.42;;;8.20;81.00;;;;;;5019299;28;20037;-78
2022/03/19 02:07:56;;;;;;;4.43;1.75;;;8.20;81.10;;;;;;5035791;28;20063;-78
2022/03/19 02:10:24;;;;;;;5.35;1.60;;;8.20;81.20;;;;;;5035443;28;20056;-78
2022/03/19 02:12:53;;;;;;;4.28;1.60;;;8.20;81.20;;;;;;5035551;28;20139;-78
2022/03/19 02:15:20;;;;;;;2.88;1.60;;;8.10;81.30;;;;;;5035630;28;20048;-78
2022/03/19 02:17:48;;;;;;;7.57;2.42;;;8.20;81.30;;;;;;5051990;28;20041;-79
2022/03/19 02:20:15;;;;;;;7.45;3.10;;;8.10;81.40;;;;;;5035426;28;20116;-79
2022/03/19 02:25:34;;;;;;;3.90;1.50;;;8.10;81.40;;;;;;5051838;28;20132;-81
2022/03/19 02:25:35;;;;;;;5.10;2.17;;;8.10;81.30;;;;;;5054997;28;20056;-82
2022/03/19 02:28:03;;;;;;;6.10;2.33;;;8.10;81.40;;;;;;5035997;28;20037;-81
2022/03/19 02:30:36;;;;;;;5.90;1.80;;;8.10;81.50;;;;;;5051836;28;20044;-82
2022/03/19 02:33:04;;;;;;;5.75;2.60;;;8.00;81.50;;;;;;5051559;28;20057;-81
2022/03/19 02:35:31;;;;;;;7.47;2.72;;;8.00;81.50;;;;;;5035120;28;20041;-83
2022/03/19 02:37:58;;;;;;;5.85;2.25;;;8.00;81.60;;;;;;5051470;28;20049;-82
2022/03/19 02:40:25;;;;;;;6.70;2.72;;;8.00;81.50;;;;;;5035194;28;20056;-82
2022/03/19 02:42:54;;;;;;;7.00;3.05;;;8.00;81.60;;;;;;5051351;28;20045;-82
2022/03/19 02:45:23;;;;;;;7.82;2.63;;;8.00;81.60;;;;;;5035289;28;20071;-82
2022/03/19 02:48:00;;;;;;;11.50;3.03;;;8.00;81.80;;;;;;5034999;28;20049;-81
2022/03/19 02:50:36;;;;;;;8.38;3.33;;;8.00;81.80;;;;;;5036657;28;20052;-82
2022/03/19 02:53:08;;;;;;;9.48;2.97;;;8.00;81.80;;;;;;5052630;28;20492;-82
2022/03/19 02:55:38;;;;;;;4.38;1.90;;;7.90;81.80;;;;;;5034804;28;20049;-83
2022/03/19 02:58:06;;;;;;;6.68;2.42;;;7.90;81.80;;;;;;5051227;28;20045;-82
2022/03/19 03:00:35;;;;;;;7.65;2.28;;;7.90;81.90;;;;;;5035292;28;20056;-82
2022/03/19 03:03:04;;;;;;;4.03;1.92;;;7.80;81.90;;;;;;5051436;28;20152;-82
2022/03/19 03:05:33;;;;;;;5.90;2.30;;;7.80;81.90;;;;;;5051081;28;20083;-82
2022/03/19 03:08:01;;;;;;;2.97;1.35;;;7.80;82.00;;;;;;5035131;28;20053;-82
2022/03/19 03:10:30;;;;;;;5.30;2.60;;;7.80;82.00;;;;;;5034651;28;20060;-81
2022/03/19 03:12:59;;;;;;;4.57;1.50;;;7.80;82.00;;;;;;5034808;28;20800;-81
2022/03/19 03:15:26;;;;;;;3.92;1.60;;;7.80;82.00;;;;;;5065446;28;20052;-81
2022/03/19 03:17:54;;;;;;;5.18;2.33;;;7.70;82.00;;;;;;5050624;28;20101;-82
2022/03/19 03:20:21;;;;;;;5.15;2.33;;;7.70;82.10;;;;;;5038137;28;20044;-82
2022/03/19 03:22:51;;;;;;;3.28;1.60;;;7.70;82.10;;;;;;5037985;28;20056;-82
2022/03/19 03:25:19;;;;;;;4.50;1.80;;;7.70;82.20;;;;;;5038371;28;20127;-81
2022/03/19 03:27:46;;;;;;;6.28;2.38;;;7.70;82.20;;;;;;5054315;28;20049;-82
2022/03/19 03:30:15;;;;;;;3.78;1.50;;;7.70;82.20;;;;;;5038209;28;20056;-81
2022/03/19 03:32:45;;;;;;;4.72;2.08;;;7.70;82.20;;;;;;5057213;28;20048;-81
2022/03/19 03:35:12;;;;;;;5.32;2.60;;;7.70;82.20;;;;;;5057419;28;20043;-82
2022/03/19 03:37:39;;;;;;;7.25;2.53;;;7.70;82.20;;;;;;5041228;28;20036;-82
2022/03/19 03:40:07;;;;;;;6.63;2.53;;;7.70;82.20;;;;;;5041306;28;20056;-82
2022/03/19 03:42:38;;;;;;;5.82;2.13;;;7.70;82.20;;;;;;5057712;28;20048;-79
2022/03/19 03:45:06;;;;;;;6.38;2.70;;;7.70;82.30;;;;;;5073930;28;20884;-78
2022/03/19 03:47:33;;;;;;;5.35;2.75;;;7.60;82.30;;;;;;5057083;28;20063;-78
2022/03/19 03:50:00;;;;;;;7.00;2.67;;;7.70;82.30;;;;;;5040211;28;20120;-79
2022/03/19 03:52:30;;;;;;;5.43;2.20;;;7.70;82.20;;;;;;5057314;28;20496;-79
2022/03/19 03:54:57;;;;;;;4.72;2.60;;;7.60;82.20;;;;;;5074609;28;20039;-79
2022/03/19 03:57:24;;;;;;;4.68;2.65;;;7.60;82.30;;;;;;5057544;28;20064;-79
2022/03/19 03:59:52;;;;;;;5.20;2.22;;;7.60;82.30;;;;;;5074136;28;20048;-79
2022/03/19 04:02:19;;;;;;;8.90;3.13;;;7.60;82.40;;;;;;5074066;28;20078;-78
2022/03/19 04:04:47;;;;;;;10.13;2.53;;;7.60;82.50;;;;;;5057227;28;20490;-78
2022/03/19 04:07:15;;;;;;;6.50;2.80;;;7.60;82.60;;;;;;5073574;28;20054;-78
2022/03/19 04:09:42;;;;;;;7.13;3.13;;;7.50;82.50;;;;;;5057367;28;20134;-78
2022/03/19 04:12:10;;;;;;;6.85;2.85;;;7.50;82.60;;;;;;5057409;28;20404;-78
2022/03/19 04:14:37;;;;;;;6.68;2.80;;;7.50;82.70;;;;;;5056916;28;20048;-78
2022/03/19 04:17:04;;;;;;;8.23;3.15;;;7.50;82.60;;;;;;5057573;28;20040;-78
2022/03/19 04:19:32;;;;;;;6.53;3.03;;;7.50;82.70;;;;;;5057389;28;20051;-79
2022/03/19 04:21:59;;;;;;;5.78;2.63;;;7.50;82.80;;;;;;5074514;28;20110;-80
2022/03/19 04:24:26;;;;;;;5.70;2.25;;;7.50;82.80;;;;;;5043719;28;20055;-79
2022/03/19 04:26:53;;;;;;;4.70;2.50;;;7.50;82.70;;;;;;5060972;28;20116;-79
2022/03/19 04:29:20;;;;;;;5.50;2.78;;;7.50;82.80;;;;;;5060894;28;20808;-79
2022/03/19 04:31:47;;;;;;;5.18;2.42;;;7.50;82.70;;;;;;5077320;28;20105;-79
2022/03/19 04:34:15;;;;;;;7.13;3.13;;;7.40;82.80;;;;;;5060419;28;20052;-80
2022/03/19 04:36:42;;;;;;;6.32;2.83;;;7.40;82.80;;;;;;5060694;28;20047;-80
2022/03/19 04:39:10;;;;;;;5.20;2.33;;;7.40;82.90;;;;;;5077205;28;20504;-79
2022/03/19 04:41:38;;;;;;;4.85;2.05;;;7.40;82.80;;;;;;5060812;28;20408;-79
2022/03/19 04:44:06;;;;;;;3.83;1.60;;;7.40;82.90;;;;;;5077032;28;20131;-79
2022/03/19 04:46:33;;;;;;;4.10;2.00;;;7.30;83.00;;;;;;5060322;28;20044;-79
2022/03/19 04:49:01;;;;;;;5.68;2.53;;;7.30;83.00;;;;;;5060188;28;20086;-79
2022/03/19 04:51:32;;;;;;;4.20;2.00;;;7.30;83.70;;;;;;5059855;28;20044;-79
2022/03/19 04:54:00;;;;;;;7.03;2.58;;;7.20;83.20;;;;;;5076915;28;20032;-80
2022/03/19 04:56:28;;;;;;;4.80;2.10;;;7.20;83.30;;;;;;5060012;28;20075;-79
2022/03/19 04:58:58;;;;;;;4.68;2.08;;;7.20;83.30;;;;;;5076717;28;20050;-79
2022/03/19 05:01:29;;;;;;;6.30;2.47;;;7.20;83.20;;;;;;5060283;28;20239;-79
2022/03/19 05:03:57;;;;;;;4.38;1.40;;;7.20;83.30;;;;;;5060420;28;20395;-79
2022/03/19 05:06:25;;;;;;;5.68;2.22;;;7.20;83.30;;;;;;5076381;28;20083;-80
2022/03/19 05:11:12;;;;;;;3.33;1.75;;;7.10;83.30;;;;;;5076670;28;20093;-79
2022/03/19 05:11:42;;;;;;;5.38;1.83;;;7.10;83.40;;;;;;5080416;28;20036;-80
2022/03/19 05:14:13;;;;;;;6.22;2.03;;;7.10;83.40;;;;;;5076418;28;20114;-79
2022/03/19 05:16:40;;;;;;;5.05;2.20;;;7.10;83.40;;;;;;5076429;28;20493;-80
2022/03/19 05:19:07;;;;;;;6.35;2.40;;;7.10;83.50;;;;;;5043343;28;20093;-80
2022/03/19 05:21:35;;;;;;;7.10;2.00;;;7.10;83.40;;;;;;5059794;28;20101;-80
2022/03/19 05:24:02;;;;;;;6.22;2.70;;;7.00;83.40;;;;;;5059962;28;20397;-79
2022/03/19 05:26:29;;;;;;;7.72;3.33;;;7.00;83.40;;;;;;5059808;28;20040;-80
2022/03/19 05:28:57;;;;;;;6.93;2.28;;;7.00;83.40;;;;;;5043131;28;20044;-80
2022/03/19 05:31:35;;;;;;;3.90;2.00;;;7.00;83.40;;;;;;5063071;28;20119;-79
2022/03/19 05:36:49;;;;;;;5.93;2.10;;;7.00;83.50;;;;;;5061662;28;20135;-80
2022/03/19 05:39:16;;;;;;;5.90;2.20;;;6.90;83.50;;;;;;5059631;28;20547;-83
2022/03/19 05:41:44;;;;;;;7.32;2.15;;;6.90;83.50;;;;;;5042468;28;20105;-83
2022/03/19 05:44:11;;;;;;;6.70;2.25;;;6.90;83.50;;;;;;5075854;28;20089;-83
2022/03/19 05:46:38;;;;;;;5.60;2.28;;;6.90;83.50;;;;;;5059132;28;20097;-83
2022/03/19 05:49:05;;;;;;;5.75;2.00;;;6.90;83.50;;;;;;5075643;28;20040;-83
2022/03/19 05:51:32;;;;;;;4.45;2.25;;;6.90;83.50;;;;;;5058979;28;20069;-83
2022/03/19 05:54:00;;;;;;;6.80;2.20;;;6.90;83.40;;;;;;5059171;28;20079;-83
2022/03/19 05:56:27;;;;;;;4.45;2.13;;;6.90;83.40;;;;;;5058871;28;20062;-83
2022/03/19 05:58:55;;;;;;;4.88;1.85;;;6.90;83.40;;;;;;5075992;28;20047;-83
2022/03/19 06:01:26;;;;;;;5.13;2.03;;;6.80;83.40;;;;;;5075304;28;20036;-82
2022/03/19 06:03:57;;;;;;;6.78;2.22;;;6.80;83.40;;;;;;5042449;28;20044;-83
2022/03/19 06:06:26;;;;;;;7.45;2.50;;;6.80;83.30;;;;;;5058684;28;20102;-81
2022/03/19 06:08:54;;;;;;;4.00;1.45;;;6.80;83.20;;;;;;5058288;28;20048;-81
2022/03/19 06:11:21;;;;;;;4.20;2.10;;;6.80;83.20;;;;;;5058698;28;20045;-80
2022/03/19 06:13:51;;;;;;;3.65;1.80;;;6.80;83.10;;;;;;5058472;28;20044;-81
2022/03/19 06:16:20;;;;;;;5.05;1.73;;;6.80;83.00;;;;;;5058119;28;20060;-83
2022/03/19 06:18:50;;;;;;;5.20;2.05;;;6.80;83.00;;;;;;5042166;28;20044;-83
2022/03/19 06:21:19;;;;;;;4.68;1.83;;;6.80;82.90;;;;;;5042406;28;20051;-83
2022/03/19 06:23:46;;;;;;;5.85;2.20;;;6.80;82.90;;;;;;5074765;28;20052;-83
2022/03/19 06:26:18;;;;;;;6.55;1.85;;;6.80;82.80;;;;;;5074979;28;20044;-83
2022/03/19 06:28:45;;;;;;;3.88;1.67;;;6.80;82.70;;;;;;5049471;28;20056;-79
2022/03/19 06:31:12;;;;;;;4.80;2.10;;;6.90;82.60;;;;;;5033366;28;20053;-80
2022/03/19 06:33:41;;;;;;;7.65;2.40;;;6.90;82.50;;;;;;5049787;28;20049;-80
2022/03/19 06:38:55;;;;;;;6.22;2.10;;;7.00;82.10;;;;;;5036891;28;20072;-83
2022/03/19 06:41:23;;;;;;;4.38;1.70;;;7.10;82.00;;;;;;5017625;28;20051;-83
2022/03/19 06:43:51;;;;;;;6.35;1.55;;;7.10;81.90;;;;;;5033954;28;20053;-85
2022/03/19 06:46:21;;;;;;;3.25;1.45;;;7.20;81.80;;;;;;5017040;28;20053;-84
2022/03/19 06:48:49;;;;;;;5.75;1.90;;;7.20;81.70;;;;;;5050339;28;20192;-84
2022/03/19 06:51:20;;;;;;;5.50;1.63;;;7.30;81.60;;;;;;5017764;28;20560;-83
2022/03/19 06:53:48;;;;;;;4.10;1.45;;;7.30;81.40;;;;;;5017601;28;20405;-82
2022/03/19 06:56:19;;;;;;;6.70;1.98;;;7.40;81.30;;;;;;5017382;28;20056;-82
2022/03/19 06:58:55;;;;;;;4.75;2.15;;;7.40;81.00;;;;;;5023960;28;20044;-80
2022/03/19 07:01:23;;;;;;;8.70;2.97;;;7.50;80.80;;;;;;5074627;28;20044;-82
2022/03/19 07:03:50;;;;;;;7.63;2.70;;;7.50;80.70;;;;;;5074928;28;20055;-83
2022/03/19 07:06:18;;;;;;;6.70;2.00;;;7.50;80.50;;;;;;5057810;28;20048;-81
2022/03/19 07:09:05;;;;;;;3.13;1.70;;;7.60;80.30;;;;;;5063578;28;20055;-81
2022/03/19 07:11:35;;;;;;;7.95;2.17;;;7.60;80.10;;;;;;5057979;28;20503;-82
2022/03/19 07:14:07;;;;;;;4.35;1.85;;;7.60;79.90;;;;;;5057957;28;20054;-82
2022/03/19 07:16:34;;;;;;;5.70;1.95;;;7.60;79.80;;;;;;5057833;28;20041;-83
2022/03/19 07:19:03;;;;;;;5.25;1.73;;;7.60;79.60;;;;;;5057868;28;20040;-82
2022/03/19 07:21:30;;;;;;;4.05;1.45;;;7.70;79.60;;;;;;5057776;28;20077;-83
2022/03/19 07:23:57;;;;;;;6.65;1.92;;;7.70;79.50;;;;;;5074968;28;20063;-82
2022/03/19 07:26:26;;;;;;;4.50;2.40;;;7.70;79.30;;;;;;5057380;28;20504;-82
2022/03/19 07:28:53;;;;;;;6.70;2.30;;;7.70;79.30;;;;;;5057579;28;20047;-81
2022/03/19 07:31:21;;;;;;;8.57;2.53;;;7.80;79.20;;;;;;5057306;28;20066;-81
2022/03/19 07:33:50;;;;;;;5.53;1.63;;;7.80;79.20;;;;;;5041727;28;20090;-83
2022/03/19 07:36:21;;;;;;;6.45;2.70;;;7.80;79.30;;;;;;5057612;28;20113;-84
2022/03/19 07:38:51;;;;;;;4.63;1.67;;;7.80;79.20;;;;;;5042198;28;20488;-85
2022/03/19 07:44:05;;;;;;;6.82;2.53;;;7.90;79.80;;;;;;5074684;28;20044;-85
2022/03/19 07:46:34;;;;;;;6.10;2.13;;;7.90;79.20;;;;;;5058133;28;20538;-85
2022/03/19 07:49:05;;;;;;;7.60;2.38;;;7.90;79.20;;;;;;5057473;28;20048;-85
2022/03/19 07:51:32;;;;;;;3.95;2.03;;;7.90;79.20;;;;;;5041126;28;20610;-86
2022/03/19 07:54:00;;;;;;;5.88;2.30;;;7.90;79.10;;;;;;5058540;28;20048;-86
2022/03/19 07:56:27;;;;;;;9.55;2.83;;;8.00;79.20;;;;;;5058243;28;20060;-86
2022/03/19 07:58:54;;;;;;;7.20;2.83;;;8.00;79.10;;;;;;5060693;28;20093;-85
2022/03/19 08:01:21;;;;;;;7.03;2.65;;;8.10;79.10;;;;;;5045663;28;20503;-86
2022/03/19 08:03:49;;;;;;;8.00;2.25;;;8.10;79.00;;;;;;5046015;28;20044;-86
2022/03/19 08:06:16;;;;;;;4.60;2.22;;;8.20;78.90;;;;;;5078963;28;20139;-86
2022/03/19 08:08:47;;;;;;;9.88;2.67;;;8.30;78.80;;;;;;5063612;28;20044;-86
2022/03/19 08:11:14;;;;;;;8.65;3.70;;;8.30;78.60;;;;;;5062434;28;20083;-87
2022/03/19 08:13:41;;;;;;;7.18;2.15;;;8.40;78.50;;;;;;5062003;28;20055;-87
2022/03/19 08:16:12;;;;;;;7.47;2.65;;;8.40;78.30;;;;;;5061898;28;20036;-86
2022/03/19 08:18:39;;;;;;;10.98;2.70;;;8.50;78.20;;;;;;5045665;28;20048;-86
2022/03/19 08:21:06;;;;;;;7.00;2.25;;;8.50;78.00;;;;;;5061964;28;20055;-86
2022/03/19 08:23:35;;;;;;;5.85;2.00;;;8.60;77.80;;;;;;5062231;28;20109;-86
2022/03/19 08:26:02;;;;;;;5.93;2.20;;;8.70;77.70;;;;;;5062443;28;20058;-85
2022/03/19 08:28:39;;;;;;;6.38;2.47;;;8.70;77.40;;;;;;5062198;28;20048;-86
2022/03/19 08:31:06;;;;;;;4.20;1.45;;;8.80;77.30;;;;;;5047152;28;20074;-85
2022/03/19 08:33:34;;;;;;;8.27;2.25;;;8.80;77.10;;;;;;5078259;28;20062;-86
2022/03/19 08:36:04;;;;;;;6.18;1.55;;;8.80;77.00;;;;;;5045568;28;20051;-86
2022/03/19 08:41:34;;;;;;;5.68;1.52;;;8.90;76.70;;;;;;5065000;28;20143;-88
2022/03/19 08:44:58;;;;;;;7.70;2.08;;;9.00;76.40;;;;;;5064021;28;20036;-86
2022/03/19 08:48:01;;;;;;;5.30;1.70;;;9.00;76.20;;;;;;5082687;28;20044;-86
2022/03/19 08:50:32;;;;;;;5.10;1.38;;;9.00;76.30;;;;;;5079109;28;20040;-86
2022/03/19 08:53:02;;;;;;;3.40;1.35;;;9.10;76.10;;;;;;5061655;28;20044;-88
2022/03/19 08:55:33;;;;;;;5.60;1.80;;;9.20;76.00;;;;;;5061587;28;20450;-85
2022/03/19 08:58:19;;;;;;;4.68;1.33;;;9.20;75.70;;;;;;5046643;28;20117;-85
2022/03/19 09:00:58;;;;;;;5.65;1.30;;;9.20;75.40;;;;;;5062499;28;20044;-85
2022/03/19 09:03:29;;;;;;;4.53;1.75;;;9.30;75.20;;;;;;5062185;28;20044;-86
2022/03/19 09:05:57;;;;;;;5.78;1.67;;;9.30;74.80;;;;;;5061030;28;20089;-87
2022/03/19 09:08:24;;;;;;;3.70;1.10;;;9.30;74.60;;;;;;5044417;28;20052;-87
2022/03/19 09:10:59;;;;;;;7.22;1.20;;;9.30;74.40;;;;;;5075371;28;20143;-85
2022/03/19 09:13:27;;;;;;;6.95;2.17;;;9.30;74.20;;;;;;5045890;28;20450;-85
2022/03/19 09:15:57;;;;;;;5.22;1.67;;;9.40;73.70;;;;;;5067005;28;20126;-88
2022/03/19 09:18:26;;;;;;;7.40;1.80;;;9.50;73.10;;;;;;5070873;28;20040;-85
2022/03/19 09:21:15;;;;;;;6.05;1.63;;;9.50;72.20;;;;;;5066398;28;20040;-86
2022/03/19 09:24:28;;;;;;;4.82;2.05;;;9.50;72.30;;;;;;5071090;28;20047;-85
2022/03/19 09:26:58;;;;;;;6.15;1.45;;;9.60;71.50;;;;;;5066077;28;20048;-87
2022/03/19 09:29:28;;;;;;;4.13;1.10;;;9.60;71.30;;;;;;5062457;28;20138;-87
2022/03/19 09:31:55;;;;;;;3.65;1.10;;;9.60;71.10;;;;;;5061045;28;20135;-88
2022/03/19 09:34:23;;;;;;;3.92;1.27;;;9.70;71.00;;;;;;5061054;28;20051;-87
2022/03/19 09:36:50;;;;;;;3.97;1.70;;;9.80;70.50;;;;;;5062427;28;20044;-87
2022/03/19 09:39:17;;;;;;;2.53;0.82;;;9.80;69.90;;;;;;5044887;28;20044;-86
2022/03/19 09:41:45;;;;;;;4.40;1.88;;;9.90;69.70;;;;;;5062576;28;20043;-87
2022/03/19 09:44:13;;;;;;;5.38;0.90;;;9.90;69.30;;;;;;5079632;28;20044;-87
2022/03/19 09:46:43;;;;;;;4.25;1.10;;;10.00;69.10;;;;;;5046198;28;20040;-86
2022/03/19 09:49:17;;;;;;;2.78;1.30;;;10.00;68.20;;;;;;5047884;28;20048;-88
2022/03/19 09:51:54;;;;;;;4.03;0.90;;;10.00;67.70;;;;;;5045136;28;20053;-88
2022/03/19 09:54:23;;;;;;;6.05;1.40;;;10.10;67.00;;;;;;5060565;28;20048;-87
2022/03/19 09:56:51;;;;;;;7.15;1.25;;;10.10;67.00;;;;;;5060482;28;20138;-87
2022/03/19 09:59:19;;;;;;;2.13;0.70;;;10.10;66.90;;;;;;5076896;28;20036;-87
2022/03/19 10:01:46;;;;;;;5.60;0.95;;;10.10;66.30;;;;;;5076764;28;20043;-87
2022/03/19 10:04:17;;;;;;;3.35;1.00;;;10.10;66.20;;;;;;5060503;28;20046;-87
2022/03/19 10:09:49;;;;;;;2.20;0.60;;;10.20;66.00;;;;;;5076197;28;20052;-86
2022/03/19 10:12:20;;;;;;;2.90;0.70;;;10.20;65.90;;;;;;5059579;28;20048;-86
2022/03/19 10:14:53;;;;;;;4.38;0.60;;;10.20;65.80;;;;;;5059825;28;20048;-87
2022/03/19 10:17:37;;;;;;;2.85;0.88;;;10.40;65.10;;;;;;5075907;28;20050;-87
2022/03/19 10:20:10;;;;;;;2.53;0.70;;;10.40;64.30;;;;;;5059216;28;20044;-86
2022/03/19 10:22:41;;;;;;;3.72;0.60;;;10.50;63.20;;;;;;5058927;28;20112;-86
2022/03/19 10:25:12;;;;;;;2.53;0.70;;;10.50;63.20;;;;;;5059158;28;20047;-87
2022/03/19 10:27:41;;;;;;;2.33;0.68;;;10.50;61.60;;;;;;5042755;28;20075;-87
2022/03/19 10:30:19;;;;;;;3.67;0.75;;;10.50;61.80;;;;;;5042892;28;20052;-86
2022/03/19 10:32:53;;;;;;;4.97;1.35;;;10.60;62.10;;;;;;5058913;28;20554;-87
2022/03/19 10:35:32;;;;;;;2.63;0.50;;;10.60;62.20;;;;;;5074983;28;20056;-87
2022/03/19 10:38:20;;;;;;;2.20;0.70;;;10.70;62.00;;;;;;5058432;28;20052;-85
2022/03/19 10:40:51;;;;;;;2.97;0.60;;;10.70;61.50;;;;;;5074949;28;20131;-87
2022/03/19 10:43:23;;;;;;;2.63;0.68;;;10.70;61.20;;;;;;5058519;28;20040;-86
2022/03/19 10:45:52;;;;;;;1.73;0.68;;;10.80;60.90;;;;;;5074750;28;20044;-87
2022/03/19 10:48:25;;;;;;;3.00;0.95;;;10.90;60.90;;;;;;5041620;28;20093;-86
2022/03/19 10:50:53;;;;;;;;;;;11.00;60.70;;;;;;5074735;28;20044;-86
2022/03/19 10:53:22;;;;;;;2.97;0.68;;;11.00;60.90;;;;;;5057682;28;20393;-87
2022/03/19 10:55:52;;;;;;;3.00;0.88;;;10.90;59.40;;;;;;5058161;28;20131;-86
2022/03/19 10:58:20;;;;;;;4.13;0.80;;;10.90;58.70;;;;;;5042493;28;20058;-86
2022/03/19 11:01:07;;;;;;;3.42;0.70;;;10.90;58.80;;;;;;5060881;28;20067;-87
2022/03/19 11:03:39;;;;;;;5.15;1.67;;;10.90;59.10;;;;;;5075058;28;20043;-86
2022/03/19 11:06:10;;;;;;;4.82;0.90;;;10.90;58.60;;;;;;5058723;28;20480;-86
2022/03/19 11:08:51;;;;;;;3.75;0.63;;;11.00;58.40;;;;;;5075109;28;20465;-85
2022/03/19 11:11:27;;;;;;;2.33;0.60;;;11.10;58.40;;;;;;5058333;28;20050;-86
2022/03/19 11:13:58;;;;;;;2.58;0.57;;;11.10;58.20;;;;;;5053449;28;20075;-85
2022/03/19 11:16:27;;;;;;;1.67;0.50;;;11.10;58.10;;;;;;5053642;28;20048;-85
2022/03/19 11:18:57;;;;;;;2.42;0.50;;;11.10;57.40;;;;;;5058801;28;20097;-83
2022/03/19 11:21:28;;;;;;;1.90;0.40;;;11.20;57.40;;;;;;5058610;28;20043;-83
2022/03/19 11:23:57;;;;;;;1.77;0.28;;;11.30;57.40;;;;;;5056826;28;20046;-82
2022/03/19 11:26:28;;;;;;;4.50;0.50;;;11.40;57.50;;;;;;5056973;28;20415;-82
2022/03/19 11:28:56;;;;;;;2.78;0.73;;;11.50;56.80;;;;;;5074310;28;20123;-82
2022/03/19 11:31:30;;;;;;;2.42;0.40;;;11.50;56.80;;;;;;5057467;28;20139;-82
2022/03/19 11:34:15;;;;;;;2.72;0.50;;;11.50;55.60;;;;;;5059873;28;20052;-83
2022/03/19 11:36:57;;;;;;;2.15;0.63;;;11.60;54.90;;;;;;5077895;28;20078;-82
2022/03/19 11:39:25;;;;;;;1.27;0.40;;;11.60;54.40;;;;;;5078334;28;20037;-82
2022/03/19 11:41:55;;;;;;;1.25;0.38;;;11.60;54.40;;;;;;5061504;28;20435;-83
2022/03/19 11:44:27;;;;;;;1.85;0.50;;;11.60;54.10;;;;;;5061568;28;20044;-83
2022/03/19 11:46:59;;;;;;;;;;;11.50;53.80;;;;;;5030188;28;20048;-84
2022/03/19 11:49:46;;;;;;;2.65;0.45;;;11.50;53.20;;;;;;5078028;28;20395;-83
2022/03/19 11:52:39;;;;;;;1.85;0.35;;;11.50;53.90;;;;;;5061468;28;20512;-82
2022/03/19 11:55:12;;;;;;;1.83;0.35;;;11.60;53.80;;;;;;5060952;28;20102;-82
2022/03/19 11:57:59;;;;;;;2.63;0.40;;;11.60;54.00;;;;;;5068584;28;20028;-81
2022/03/19 12:00:35;;;;;;;2.25;0.40;;;11.70;53.80;;;;;;5080307;28;20040;-81
2022/03/19 12:03:24;;;;;;;0.90;0.38;;;11.80;52.70;;;;;;5078080;28;20225;-83
2022/03/19 12:05:52;;;;;;;1.90;0.73;;;11.90;51.40;;;;;;5096419;28;20044;-83
2022/03/19 12:08:24;;;;;;;1.05;0.30;;;11.90;50.20;;;;;;5077821;28;20046;-82
2022/03/19 12:11:01;;;;;;;2.50;0.47;;;11.90;50.30;;;;;;5078238;28;20040;-83
2022/03/19 12:13:28;;;;;;;1.38;0.40;;;11.90;49.60;;;;;;5077693;28;20048;-83
2022/03/19 12:15:57;;;;;;;2.15;0.30;;;12.00;49.30;;;;;;5061025;28;20089;-83
2022/03/19 12:18:29;;;;;;;3.00;0.40;;;12.10;48.60;;;;;;5060976;28;20072;-83
2022/03/19 12:21:00;;;;;;;2.67;0.73;;;12.10;48.00;;;;;;5076035;28;20131;-83
2022/03/19 12:23:40;;;;;;;3.42;0.40;;;12.10;48.10;;;;;;5077769;28;20147;-83
2022/03/19 12:26:08;;;;;;;4.93;0.43;;;12.10;48.40;;;;;;5060871;28;20382;-83
2022/03/19 12:28:36;;;;;;;2.78;0.35;;;12.10;48.90;;;;;;5060676;28;20098;-83
2022/03/19 12:31:12;;;;;;;1.88;0.30;;;12.20;48.90;;;;;;5060666;28;20078;-83
2022/03/19 12:33:43;;;;;;;1.60;0.30;;;12.20;49.40;;;;;;5076577;28;20048;-82
2022/03/19 12:36:15;;;;;;;1.80;0.47;;;12.10;49.80;;;;;;5060656;28;20143;-83
2022/03/19 12:38:44;;;;;;;2.88;0.63;;;12.20;49.90;;;;;;5077130;28;20048;-83
2022/03/19 12:41:26;;;;;;;1.75;0.40;;;12.20;49.40;;;;;;5060837;28;20063;-83
2022/03/19 12:43:58;;;;;;;3.53;0.40;;;12.30;49.00;;;;;;5061022;28;20048;-85
2022/03/19 12:46:35;;;;;;;2.10;0.40;;;12.30;49.10;;;;;;5061830;28;20059;-86
2022/03/19 12:49:17;;;;;;;1.65;0.38;;;12.30;48.90;;;;;;5061567;28;20035;-85
2022/03/19 12:51:47;;;;;;;4.40;0.73;;;12.30;48.20;;;;;;5061539;28;20457;-85
2022/03/19 12:54:24;;;;;;;2.65;0.35;;;12.30;48.00;;;;;;5060943;28;20052;-85
2022/03/19 12:56:53;;;;;;;1.10;0.28;;;12.40;47.60;;;;;;5061309;28;20040;-87
2022/03/19 12:59:23;;;;;;;1.23;0.30;;;12.30;47.90;;;;;;5061158;28;20109;-87
2022/03/19 13:01:51;;;;;;;3.88;0.45;;;12.40;48.30;;;;;;5060664;28;20042;-84
2022/03/19 13:04:26;;;;;;;1.65;0.32;;;12.30;48.10;;;;;;5060920;28;20051;-84
2022/03/19 13:06:55;;;;;;;2.42;0.30;;;12.30;48.10;;;;;;5076780;28;20047;-85
2022/03/19 13:09:41;;;;;;;2.58;0.30;;;12.40;48.40;;;;;;5044014;28;20063;-84
2022/03/19 13:12:14;;;;;;;2.25;0.25;;;12.50;47.90;;;;;;5060391;28;20058;-86
2022/03/19 13:14:50;;;;;;;0.90;0.40;;;12.50;47.50;;;;;;5060092;28;20151;-84
2022/03/19 13:17:21;;;;;;;1.00;0.20;;;12.50;46.90;;;;;;5059893;28;20040;-84
2022/03/19 13:19:50;;;;;;;1.05;0.30;;;12.50;46.70;;;;;;5059777;28;20051;-83
2022/03/19 13:22:21;;;;;;;1.70;0.20;;;12.40;46.70;;;;;;5077338;28;20123;-84
2022/03/19 13:24:55;;;;;;;3.03;0.30;;;12.40;45.70;;;;;;5060012;28;20044;-84
2022/03/19 13:27:27;;;;;;;1.35;0.35;;;12.50;45.70;;;;;;5076576;28;20048;-85